Bond, Louisiana
Current Conditions -  °F | °C
As of 1:35 PM on Monday 22 Dec 2014 (Local Time) from KACP Reporting Station
Overcast Overcast  
Wind Chill: 70°   Ceiling: 1200
Heat Index: 70°   Visibility: 10mi
Dew Point: 63°   Wind: 10mph
Humidity: 76%   Direction: 210°SSW
Pressure: 29.66"   Gusts: 16mph
Location:  30.8164°N, 92.6914°W
Report Text: KACP 221935Z AUTO 21009G14KT 10SM OVC012 21/17 A2966 RMK AO2 T02130170
Loading
Personal Weather Stations






























Interactive Weather Map New forecast layout! Learn more

10-Day Weather Forecast

Advertisements
Track Severe Weather on mobile